Time;durP1;ratioP1;P1;durP2;ratioP2;P2;SDS_P1;SDS_P2;PMS_P1;PMS_P2;Temp;Humidity;BMP_temperature;BMP_pressure;BME280_temperature;BME280_humidity;BME280_pressure;Samples;Min_cycle;Max_cycle;Signal;HPM_P1;HPM_P2
2022/03/21 00:01:05;;;;;;;;;;;8.60;99.90;;;;;;6244111;23;19998;-75
2022/03/21 00:03:30;;;;;;;;;;;8.60;99.90;;;;;;6244548;23;19908;-75
2022/03/21 00:05:57;;;;;;;;;;;8.40;99.90;;;;;;6243578;23;19911;-74
2022/03/21 00:08:24;;;;;;;;;;;8.40;99.90;;;;;;6244365;23;19907;-73
2022/03/21 00:10:50;;;;;;;;;;;8.30;99.90;;;;;;6243756;23;19977;-74
2022/03/21 00:13:16;;;;;;;;;;;8.30;99.90;;;;;;6244303;23;19910;-73
2022/03/21 00:15:43;;;;;;;;;;;8.30;99.90;;;;;;6244156;23;19982;-75
2022/03/21 00:18:09;;;;;;;;;;;8.20;99.90;;;;;;6244688;23;19954;-74
2022/03/21 00:20:35;;;;;;;;;;;8.20;99.90;;;;;;6243889;23;19908;-74
2022/03/21 00:23:02;;;;;;;;;;;8.20;99.90;;;;;;6217701;23;20022;-75
2022/03/21 00:25:28;;;;;;;;;;;8.10;99.90;;;;;;6243982;23;19911;-74
2022/03/21 00:27:54;;;;;;;;;;;8.00;99.90;;;;;;6244701;23;19987;-76
2022/03/21 00:30:20;;;;;;;;;;;8.00;99.90;;;;;;6243939;23;19918;-74
2022/03/21 00:32:46;;;;;;;;;;;8.00;99.90;;;;;;6243814;23;19982;-74
2022/03/21 00:35:14;;;;;;;;;;;8.00;99.90;;;;;;6243988;23;19943;-75
2022/03/21 00:37:41;;;;;;;;;;;8.00;99.90;;;;;;6243680;23;19911;-75
2022/03/21 00:40:07;;;;;;;;;;;8.10;99.90;;;;;;6243803;23;19903;-75
2022/03/21 00:42:34;;;;;;;;;;;8.00;99.90;;;;;;6243539;23;19915;-73
2022/03/21 00:45:02;;;;;;;;;;;8.00;99.90;;;;;;6243710;23;19903;-74
2022/03/21 00:47:27;;;;;;;;;;;7.90;99.90;;;;;;6243611;23;20044;-75
2022/03/21 00:49:53;;;;;;;;;;;8.00;99.90;;;;;;6243998;23;20315;-75
2022/03/21 00:52:19;;;;;;;;;;;7.90;99.90;;;;;;6243738;23;19930;-74
2022/03/21 00:54:45;;;;;;;;;;;7.90;99.90;;;;;;6243679;23;19908;-74
2022/03/21 00:57:11;;;;;;;;;;;7.90;99.90;;;;;;6244310;23;19911;-74
2022/03/21 00:59:37;;;;;;;;;;;8.00;99.90;;;;;;6244173;23;19903;-75
2022/03/21 01:02:03;;;;;;;;;;;8.00;99.90;;;;;;6216563;23;19907;-74
2022/03/21 01:04:29;;;;;;;;;;;8.00;99.90;;;;;;6243315;23;19922;-75
2022/03/21 01:06:55;;;;;;;;;;;7.90;99.90;;;;;;6243760;23;19903;-74
2022/03/21 01:09:20;;;;;;;;;;;8.00;99.90;;;;;;6243950;23;19969;-76
2022/03/21 01:11:46;;;;;;;;;;;7.90;99.90;;;;;;6243229;23;19946;-75
2022/03/21 01:14:12;;;;;;;;;;;7.80;99.90;;;;;;6243601;23;20319;-75
2022/03/21 01:16:38;;;;;;;;;;;7.80;99.90;;;;;;6243788;23;19914;-76
2022/03/21 01:19:05;;;;;;;;;;;7.80;99.90;;;;;;6243770;23;19903;-75
2022/03/21 01:21:31;;;;;;;;;;;7.80;99.90;;;;;;6210108;23;19923;-75
2022/03/21 01:23:57;;;;;;;;;;;7.70;99.90;;;;;;6213468;23;20042;-75
2022/03/21 01:26:23;;;;;;;;;;;7.80;99.90;;;;;;6213102;23;19970;-75
2022/03/21 01:28:49;;;;;;;;;;;7.70;99.90;;;;;;6213140;23;19904;-75
2022/03/21 01:31:15;;;;;;;;;;;7.70;99.90;;;;;;6213450;23;19912;-75
2022/03/21 01:33:41;;;;;;;;;;;7.70;99.90;;;;;;6213083;23;20341;-75
2022/03/21 01:36:07;;;;;;;;;;;7.70;99.90;;;;;;6213554;23;19911;-75
2022/03/21 01:38:33;;;;;;;;;;;7.70;99.90;;;;;;6213196;23;20178;-75
2022/03/21 01:40:59;;;;;;;;;;;7.70;99.90;;;;;;6213232;23;19907;-75
2022/03/21 01:43:25;;;;;;;;;;;7.70;99.90;;;;;;6213052;23;19904;-74
2022/03/21 01:45:51;;;;;;;;;;;7.70;99.90;;;;;;6213134;23;19911;-75
2022/03/21 01:48:17;;;;;;;;;;;7.70;99.90;;;;;;6213092;23;19927;-75
2022/03/21 01:50:43;;;;;;;;;;;7.70;99.90;;;;;;6211136;23;20343;-74
2022/03/21 01:55:57;;;;;;;;;;;7.60;99.90;;;;;;6213574;23;19911;-75
2022/03/21 01:58:26;;;;;;;;;;;7.60;99.90;;;;;;6213288;23;19991;-77
2022/03/21 02:00:52;;;;;;;;;;;7.70;99.90;;;;;;6213075;23;20003;-76
2022/03/21 02:03:19;;;;;;;;;;;7.70;99.90;;;;;;6213460;23;20328;-75
2022/03/21 02:05:47;;;;;;;;;;;7.70;99.90;;;;;;6212730;23;19935;-75
2022/03/21 02:08:13;;;;;;;;;;;7.70;99.90;;;;;;6213124;23;19931;-75
2022/03/21 02:10:41;;;;;;;;;;;7.70;99.90;;;;;;6212721;23;19953;-75
2022/03/21 02:13:08;;;;;;;;;;;7.70;99.90;;;;;;6213189;23;19936;-73
2022/03/21 02:15:34;;;;;;;;;;;7.70;99.90;;;;;;6212726;23;20343;-73
2022/03/21 02:18:01;;;;;;;;;;;7.70;99.90;;;;;;6210844;23;19978;-73
2022/03/21 02:20:29;;;;;;;;;;;7.70;99.90;;;;;;6212563;23;19911;-73
2022/03/21 02:23:09;;;;;;;;;;;7.70;99.90;;;;;;6240020;23;20313;-73
2022/03/21 02:25:36;;;;;;;;;;;7.70;99.90;;;;;;6243398;23;19904;-74
2022/03/21 02:28:06;;;;;;;;;;;7.60;99.90;;;;;;6244824;23;20011;-75
2022/03/21 02:30:34;;;;;;;;;;;7.60;99.90;;;;;;6245086;23;20270;-72
2022/03/21 02:33:00;;;;;;;;;;;7.70;99.90;;;;;;6244824;23;19904;-74
2022/03/21 02:35:28;;;;;;;;;;;7.60;99.90;;;;;;6245024;23;19986;-73
2022/03/21 02:37:55;;;;;;;;;;;7.60;99.90;;;;;;6244850;23;19942;-72
2022/03/21 02:40:20;;;;;;;;;;;7.70;99.90;;;;;;6245097;23;19903;-74
2022/03/21 02:42:46;;;;;;;;;;;7.70;99.90;;;;;;6244907;23;19904;-73
2022/03/21 02:45:12;;;;;;;;;;;7.70;99.90;;;;;;6244894;23;19908;-74
2022/03/21 02:47:38;;;;;;;;;;;7.70;99.90;;;;;;6244937;23;19911;-74
2022/03/21 02:50:07;;;;;;;;;;;7.70;99.90;;;;;;6244813;23;19982;-73
2022/03/21 02:52:34;;;;;;;;;;;7.80;99.90;;;;;;6244860;23;19911;-74
2022/03/21 02:55:00;;;;;;;;;;;7.80;99.90;;;;;;6244991;23;19904;-74
2022/03/21 02:57:27;;;;;;;;;;;7.80;99.90;;;;;;6244876;23;19911;-74
2022/03/21 02:59:53;;;;;;;;;;;7.90;99.90;;;;;;6244859;23;19907;-74
2022/03/21 03:02:19;;;;;;;;;;;7.80;99.90;;;;;;6245089;23;19910;-76
2022/03/21 03:04:51;;;;;;;;;;;7.80;99.90;;;;;;6244519;23;19939;-75
2022/03/21 03:07:17;;;;;;;;;;;7.80;99.90;;;;;;6246020;23;19914;-74
2022/03/21 03:09:42;;;;;;;;;;;7.80;99.90;;;;;;6217714;23;19907;-74
2022/03/21 03:12:08;;;;;;;;;;;7.80;99.90;;;;;;6244803;23;19919;-74
2022/03/21 03:14:34;;;;;;;;;;;7.80;99.90;;;;;;6244475;23;19962;-76
2022/03/21 03:17:03;;;;;;;;;;;7.70;99.90;;;;;;6244661;23;19904;-74
2022/03/21 03:19:29;;;;;;;;;;;7.60;99.90;;;;;;6244671;23;19959;-75
2022/03/21 03:21:55;;;;;;;;;;;7.60;99.90;;;;;;6244661;23;20339;-74
2022/03/21 03:24:25;;;;;;;;;;;7.60;99.90;;;;;;6244214;23;19935;-75
2022/03/21 03:26:51;;;;;;;;;;;7.50;99.90;;;;;;6244602;23;19949;-75
2022/03/21 03:29:16;;;;;;;;;;;7.50;99.90;;;;;;6244436;23;20279;-74
2022/03/21 03:31:42;;;;;;;;;;;7.60;99.90;;;;;;6245055;23;19950;-74
2022/03/21 03:34:09;;;;;;;;;;;7.50;99.90;;;;;;6244396;23;19939;-76
2022/03/21 03:36:35;;;;;;;;;;;7.50;99.90;;;;;;6244322;23;20040;-75
2022/03/21 03:39:01;;;;;;;;;;;7.50;99.90;;;;;;6243985;23;19903;-75
2022/03/21 03:41:27;;;;;;;;;;;7.50;99.90;;;;;;6244945;23;19910;-75
2022/03/21 03:43:53;;;;;;;;;;;7.60;99.90;;;;;;6244384;23;20272;-75
2022/03/21 03:46:19;;;;;;;;;;;7.60;99.90;;;;;;6244270;23;20308;-74
2022/03/21 03:48:46;;;;;;;;;;;7.60;99.90;;;;;;6244602;23;19914;-75
2022/03/21 03:51:12;;;;;;;;;;;7.70;99.90;;;;;;6244310;23;19919;-75
2022/03/21 03:53:38;;;;;;;;;;;7.60;99.90;;;;;;6244763;23;19903;-75
2022/03/21 03:56:06;;;;;;;;;;;7.60;99.90;;;;;;6243963;23;19908;-75
2022/03/21 03:58:33;;;;;;;;;;;7.60;99.90;;;;;;6244435;23;19977;-75
2022/03/21 04:00:58;;;;;;;;;;;7.50;99.90;;;;;;6244470;23;19903;-74
2022/03/21 04:06:08;;;;;;;;;;;7.50;99.90;;;;;;6245285;23;20229;-74
2022/03/21 04:08:34;;;;;;;;;;;7.60;99.90;;;;;;6245153;23;19907;-74
2022/03/21 04:11:00;;;;;;;;;;;7.60;99.90;;;;;;6245045;23;19911;-73
2022/03/21 04:13:26;;;;;;;;;;;7.60;99.90;;;;;;6245036;23;19910;-73
2022/03/21 04:15:51;;;;;;;;;;;7.60;99.90;;;;;;6244950;23;20224;-74
2022/03/21 04:18:17;;;;;;;;;;;7.70;99.90;;;;;;6245020;23;19952;-73
2022/03/21 04:20:43;;;;;;;;;;;7.80;99.90;;;;;;6244910;23;19907;-74
2022/03/21 04:23:12;;;;;;;;;;;7.70;99.90;;;;;;6245383;23;19923;-74
2022/03/21 04:25:38;;;;;;;;;;;7.70;99.90;;;;;;6246132;23;19904;-74
2022/03/21 04:28:08;;;;;;;;;;;7.70;99.90;;;;;;6245920;23;19939;-74
2022/03/21 04:30:37;;;;;;;;;;;7.60;99.90;;;;;;6244571;23;20320;-73
2022/03/21 04:33:05;;;;;;;;;;;7.60;99.90;;;;;;6245241;23;19914;-74
2022/03/21 04:35:31;;;;;;;;;;;7.60;99.90;;;;;;6244829;23;19982;-74
2022/03/21 04:37:57;;;;;;;;;;;7.60;99.90;;;;;;6244842;23;19938;-73
2022/03/21 04:40:23;;;;;;;;;;;7.60;99.90;;;;;;6244407;23;19986;-74
2022/03/21 04:42:49;;;;;;;;;;;7.50;99.90;;;;;;6244840;23;19935;-74
2022/03/21 04:45:16;;;;;;;;;;;7.50;99.90;;;;;;6244753;23;19903;-73
2022/03/21 04:47:43;;;;;;;;;;;7.50;99.90;;;;;;6245306;23;19927;-74
2022/03/21 04:50:09;;;;;;;;;;;7.50;99.90;;;;;;6245699;23;19904;-73
2022/03/21 04:52:35;;;;;;;;;;;7.40;99.90;;;;;;6245460;23;19915;-74
2022/03/21 04:55:01;;;;;;;;;;;7.40;99.90;;;;;;6245598;23;19942;-74
2022/03/21 04:57:27;;;;;;;;;;;7.40;99.90;;;;;;6245545;23;19911;-73
2022/03/21 04:59:55;;;;;;;;;;;7.40;99.90;;;;;;6245991;23;19903;-74
2022/03/21 05:02:21;;;;;;;;;;;7.40;99.90;;;;;;6245394;23;19904;-74
2022/03/21 05:04:46;;;;;;;;;;;7.50;99.90;;;;;;6245493;23;19903;-74
2022/03/21 05:07:13;;;;;;;;;;;7.50;99.90;;;;;;6245427;23;19903;-74
2022/03/21 05:09:41;;;;;;;;;;;7.50;99.90;;;;;;6245249;23;20327;-74
2022/03/21 05:12:08;;;;;;;;;;;7.50;99.90;;;;;;6245280;23;19916;-74
2022/03/21 05:14:34;;;;;;;;;;;7.50;99.90;;;;;;6245536;23;19952;-73
2022/03/21 05:17:02;;;;;;;;;;;7.50;99.90;;;;;;6246022;23;19937;-74
2022/03/21 05:19:36;;;;;;;;;;;7.50;99.90;;;;;;6246852;23;19938;-74
2022/03/21 05:22:06;;;;;;;;;;;7.50;99.90;;;;;;6218911;23;19912;-74
2022/03/21 05:32:44;;;;;;;;;;;7.40;99.90;;;;;;6246135;23;19957;-74
2022/03/21 05:37:54;;;;;;;;;;;7.50;99.90;;;;;;6246181;23;19914;-74
2022/03/21 05:40:34;;;;;;;;;;;7.50;99.90;;;;;;6246438;23;19911;-75
2022/03/21 05:43:02;;;;;;;;;;;7.50;99.90;;;;;;6246538;23;19986;-75
2022/03/21 05:45:28;;;;;;;;;;;7.60;99.90;;;;;;6245747;23;20272;-75
2022/03/21 05:50:39;;;;;;;;;;;7.70;99.90;;;;;;6245876;23;19918;-75
2022/03/21 05:53:05;;;;;;;;;;;7.70;99.90;;;;;;6246217;23;19974;-75
2022/03/21 05:55:32;;;;;;;;;;;7.70;99.90;;;;;;6218640;23;19908;-75
2022/03/21 05:57:58;;;;;;;;;;;7.70;99.90;;;;;;6245659;23;19911;-75
2022/03/21 06:00:24;;;;;;;;;;;7.80;99.90;;;;;;6245710;23;20236;-75
2022/03/21 06:02:51;;;;;;;;;;;7.90;99.90;;;;;;6247502;23;19903;-74
2022/03/21 06:05:17;;;;;;;;;;;7.90;99.90;;;;;;6248215;23;19904;-74
2022/03/21 06:07:43;;;;;;;;;;;8.00;99.90;;;;;;6247956;23;19911;-74
2022/03/21 06:10:09;;;;;;;;;;;8.40;99.90;;;;;;6220387;23;19956;-74
2022/03/21 06:12:35;;;;;;;;;;;8.90;99.90;;;;;;6247679;23;19908;-73
2022/03/21 06:15:01;;;;;;;;;;;9.00;99.90;;;;;;6248950;23;19910;-74
2022/03/21 06:17:27;;;;;;;;;;;9.00;99.90;;;;;;6246969;23;19904;-74
2022/03/21 06:19:53;;;;;;;;;;;9.10;99.90;;;;;;6247186;23;19911;-74
2022/03/21 06:22:19;;;;;;;;;;;9.60;99.90;;;;;;6247136;23;19915;-73
2022/03/21 06:24:45;;;;;;;;;;;10.70;99.90;;;;;;6247750;23;20296;-73
2022/03/21 06:27:10;;;;;;;;;;;11.80;99.90;;;;;;6247298;23;19912;-73
2022/03/21 06:29:41;;;;;;;;;;;13.40;99.90;;;;;;6247164;23;19903;-72
2022/03/21 06:32:08;;;;;;;;;;;14.30;99.50;;;;;;6247424;23;19951;-72
2022/03/21 06:34:34;;;;;;;;;;;14.10;97.90;;;;;;6247590;23;19904;-72
2022/03/21 06:37:00;;;;;;;;;;;15.00;97.10;;;;;;6219526;23;19904;-72
2022/03/21 06:39:26;;;;;;;;;;;15.00;96.50;;;;;;6246822;23;19985;-72
2022/03/21 06:41:52;;;;;;;;;;;15.40;95.30;;;;;;6246703;23;20387;-72
2022/03/21 06:44:18;;;;;;;;;;;15.70;95.50;;;;;;6245941;23;19904;-72
2022/03/21 06:46:43;;;;;;;;;;;15.80;94.40;;;;;;6246469;23;19983;-71
2022/03/21 06:49:10;;;;;;;;;;;15.60;94.60;;;;;;6245860;23;19951;-71
2022/03/21 06:51:35;;;;;;;;;;;15.40;94.60;;;;;;6218172;23;20329;-72
2022/03/21 06:54:02;;;;;;;;;;;15.90;94.10;;;;;;6246873;23;19904;-71
2022/03/21 06:56:28;;;;;;;;;;;15.20;94.50;;;;;;6245483;23;19907;-73
2022/03/21 06:58:54;;;;;;;;;;;14.80;94.80;;;;;;6244919;23;19984;-72
2022/03/21 07:01:20;;;;;;;;;;;14.20;95.70;;;;;;6218695;23;19904;-74
2022/03/21 07:03:45;;;;;;;;;;;14.30;95.60;;;;;;6244980;23;20003;-74
2022/03/21 07:06:19;;;;;;;;;;;14.40;95.50;;;;;;6244279;23;21311;-72
2022/03/21 07:08:51;;;;;;;;;;;15.20;95.10;;;;;;6245658;23;19908;-73
2022/03/21 07:11:26;;;;;;;;;;;16.20;93.10;;;;;;6218056;23;20236;-78
2022/03/21 07:13:51;;;;;;;;;;;16.90;93.20;;;;;;6245309;23;19904;-72
2022/03/21 07:16:17;;;;;;;;;;;16.30;92.10;;;;;;6246398;23;20228;-73
2022/03/21 07:18:43;;;;;;;;;;;16.50;92.00;;;;;;6246380;23;20014;-73
2022/03/21 07:21:09;;;;;;;;;;;16.50;91.80;;;;;;6245612;23;19939;-72
2022/03/21 07:23:35;;;;;;;;;;;16.60;91.60;;;;;;6246344;23;20226;-75
2022/03/21 07:26:02;;;;;;;;;;;16.40;91.80;;;;;;6246117;23;19907;-75
2022/03/21 07:28:28;;;;;;;;;;;17.10;91.00;;;;;;6245748;23;19904;-74
2022/03/21 07:30:54;;;;;;;;;;;17.50;90.00;;;;;;6245756;23;19911;-75
2022/03/21 07:33:20;;;;;;;;;;;16.70;90.30;;;;;;6246852;23;19915;-75
2022/03/21 07:36:11;;;;;;;;;;;15.80;91.70;;;;;;6246260;23;19997;-74
2022/03/21 07:38:37;;;;;;;;;;;15.70;91.60;;;;;;6246711;23;19903;-76
2022/03/21 07:41:07;;;;;;;;;;;14.70;92.10;;;;;;6246026;23;19926;-70
2022/03/21 07:43:33;;;;;;;;;;;14.10;93.10;;;;;;6246004;23;19910;-72
2022/03/21 07:48:44;;;;;;;;;;;14.10;93.00;;;;;;6246705;23;19981;-76
2022/03/21 07:51:10;;;;;;;;;;;14.50;93.10;;;;;;6246098;23;19950;-71
2022/03/21 07:53:36;;;;;;;;;;;15.00;92.10;;;;;;6245879;23;20321;-73
2022/03/21 07:56:02;;;;;;;;;;;15.30;90.90;;;;;;6246859;23;19904;-82
2022/03/21 07:58:28;;;;;;;;;;;15.80;91.90;;;;;;6246922;23;20350;-86
2022/03/21 08:00:55;;;;;;;;;;;16.50;91.50;;;;;;6220935;23;20320;-86
2022/03/21 08:03:22;;;;;;;;;;;17.20;90.10;;;;;;6248784;23;19904;-85
2022/03/21 08:05:47;;;;;;;;;;;17.70;89.50;;;;;;6247999;23;19926;-83
2022/03/21 08:08:14;;;;;;;;;;;18.00;88.70;;;;;;6247366;23;19904;-83
2022/03/21 08:10:40;;;;;;;;;;;18.10;86.90;;;;;;6246989;23;19914;-81
2022/03/21 08:13:06;;;;;;;;;;;17.80;86.30;;;;;;6247913;23;19974;-84
2022/03/21 08:15:35;;;;;;;;;;;18.00;85.70;;;;;;6220698;23;19904;-81
2022/03/21 08:18:03;;;;;;;;;;;18.00;85.20;;;;;;6246436;23;19965;-77
2022/03/21 08:20:35;;;;;;;;;;;18.00;86.60;;;;;;6248320;23;19904;-84
2022/03/21 08:23:06;;;;;;;;;;;17.40;86.90;;;;;;6217779;23;20344;-85
2022/03/21 08:25:32;;;;;;;;;;;17.40;86.00;;;;;;6220360;23;19911;-84
2022/03/21 08:27:58;;;;;;;;;;;17.60;86.30;;;;;;6222299;23;19915;-84
2022/03/21 08:30:24;;;;;;;;;;;17.70;85.10;;;;;;6227082;23;19932;-85
2022/03/21 08:33:01;;;;;;;;;;;17.90;85.40;;;;;;6235495;23;19915;-83
2022/03/21 08:35:26;;;;;;;;;;;18.00;84.30;;;;;;6231516;23;19976;-86
2022/03/21 08:37:52;;;;;;;;;;;18.30;84.70;;;;;;6225482;22;19919;-88
2022/03/21 08:40:18;;;;;;;;;;;17.30;84.20;;;;;;6224931;23;19904;-87
2022/03/21 08:42:45;;;;;;;;;;;17.10;89.80;;;;;;6220250;23;19903;-86
2022/03/21 08:45:12;;;;;;;;;;;16.50;85.60;;;;;;6217394;23;19910;-87
2022/03/21 08:47:38;;;;;;;;;;;16.30;87.80;;;;;;6221200;23;19904;-87
2022/03/21 08:50:05;;;;;;;;;;;16.20;86.30;;;;;;6217798;23;20285;-85
2022/03/21 08:52:32;;;;;;;;;;;15.90;88.20;;;;;;6214486;23;19966;-86
2022/03/21 08:54:58;;;;;;;;;;;15.90;89.70;;;;;;6217172;23;19904;-87
2022/03/21 08:57:24;;;;;;;;;;;16.30;90.10;;;;;;6217530;23;19911;-86
2022/03/21 08:59:52;;;;;;;;;;;16.50;89.10;;;;;;6217602;23;19904;-87
2022/03/21 09:02:18;;;;;;;;;;;16.70;86.60;;;;;;6217392;23;19908;-86
2022/03/21 09:04:45;;;;;;;;;;;17.00;87.10;;;;;;6217596;23;19905;-85
2022/03/21 09:07:12;;;;;;;;;;;17.40;87.20;;;;;;6214384;23;19904;-87
2022/03/21 09:09:38;;;;;;;;;;;17.50;86.50;;;;;;6217829;23;19971;-87
2022/03/21 09:12:04;;;;;;;;;;;17.40;85.90;;;;;;6217230;23;19932;-86
2022/03/21 09:14:30;;;;;;;;;;;17.30;86.20;;;;;;6216934;23;20248;-87
2022/03/21 09:16:56;;;;;;;;;;;17.20;86.40;;;;;;6216756;23;19983;-87
2022/03/21 09:19:41;;;;;;;;;;;17.10;87.50;;;;;;6217120;23;19923;-87
2022/03/21 09:22:07;;;;;;;;;;;16.90;86.90;;;;;;6218143;23;19958;-88
2022/03/21 09:24:33;;;;;;;;;;;16.90;87.90;;;;;;6217600;23;19987;-87
2022/03/21 09:26:59;;;;;;;;;;;16.90;88.20;;;;;;6216194;23;19904;-86
2022/03/21 09:29:25;;;;;;;;;;;16.60;88.10;;;;;;6215304;23;19903;-85
2022/03/21 09:31:51;;;;;;;;;;;16.50;90.10;;;;;;6215103;23;19912;-85
2022/03/21 09:34:18;;;;;;;;;;;16.50;90.20;;;;;;6216898;23;19904;-87
2022/03/21 09:36:44;;;;;;;;;;;16.40;90.00;;;;;;6216539;23;19908;-84
2022/03/21 09:39:13;;;;;;;;;;;16.40;89.70;;;;;;6216801;23;20340;-86
2022/03/21 09:41:38;;;;;;;;;;;16.50;89.70;;;;;;6216670;23;19904;-87
2022/03/21 09:44:08;;;;;;;;;;;16.40;90.00;;;;;;6216343;23;19962;-85
2022/03/21 09:46:35;;;;;;;;;;;16.30;90.30;;;;;;6217905;23;19904;-85
2022/03/21 09:49:03;;;;;;;;;;;16.30;90.90;;;;;;6216270;23;19904;-84
2022/03/21 09:51:30;;;;;;;;;;;16.40;90.60;;;;;;6215665;23;19912;-86
2022/03/21 09:53:57;;;;;;;;;;;16.00;90.80;;;;;;6215892;23;20404;-85
2022/03/21 09:56:24;;;;;;;;;;;16.00;90.50;;;;;;6215346;23;19907;-84
2022/03/21 09:58:59;;;;;;;;;;;16.00;90.60;;;;;;6216407;23;19908;-85
2022/03/21 10:01:36;;;;;;;;;;;15.20;90.60;;;;;;6214246;23;19908;-81
2022/03/21 10:04:03;;;;;;;;;;;15.20;91.60;;;;;;6216710;23;20239;-86
2022/03/21 10:06:29;;;;;;;;;;;15.10;91.60;;;;;;6216318;23;20288;-86
2022/03/21 10:09:07;;;;;;;;;;;15.20;91.30;;;;;;6215998;23;19926;-85
2022/03/21 10:11:34;;;;;;;;;;;15.30;91.30;;;;;;6215850;23;19912;-85
2022/03/21 10:14:19;;;;;;;;;;;15.40;91.50;;;;;;6216428;23;19964;-85
2022/03/21 10:16:55;;;;;;;;;;;15.50;91.80;;;;;;6215717;23;19908;-85
2022/03/21 10:19:22;;;;;;;;;;;15.50;91.40;;;;;;6216498;23;20301;-85
2022/03/21 10:22:04;;;;;;;;;;;15.50;91.50;;;;;;6216201;23;19980;-86
2022/03/21 10:24:34;;;;;;;;;;;15.20;91.60;;;;;;6213806;23;19903;-85
2022/03/21 10:27:00;;;;;;;;;;;15.00;91.70;;;;;;6215918;23;19903;-86
2022/03/21 10:29:26;;;;;;;;;;;15.20;91.50;;;;;;6216168;23;20331;-85
2022/03/21 10:31:52;;;;;;;;;;;15.30;91.60;;;;;;6216163;23;19914;-85
2022/03/21 10:34:19;;;;;;;;;;;15.50;91.40;;;;;;6216558;23;19954;-91
2022/03/21 10:37:07;;;;;;;;;;;15.80;91.40;;;;;;6217900;23;19904;-89
2022/03/21 10:39:34;;;;;;;;;;;15.90;90.90;;;;;;6214855;23;19916;-88
2022/03/21 10:42:03;;;;;;;;;;;15.80;90.90;;;;;;6216759;23;19904;-90
2022/03/21 10:44:29;;;;;;;;;;;16.00;91.10;;;;;;6220020;23;19911;-91
2022/03/21 10:46:56;;;;;;;;;;;16.10;90.70;;;;;;6215623;23;19904;-90
2022/03/21 10:49:30;;;;;;;;;;;16.40;90.70;;;;;;6217424;23;19911;-91
2022/03/21 10:51:55;;;;;;;;;;;16.50;90.70;;;;;;6217668;23;19912;-84
2022/03/21 10:54:41;;;;;;;;;;;16.70;89.50;;;;;;6217408;23;19957;-85
2022/03/21 10:57:25;;;;;;;;;;;16.90;89.70;;;;;;6217151;23;19968;-88
2022/03/21 10:59:51;;;;;;;;;;;17.00;88.70;;;;;;6216175;23;19904;-88
2022/03/21 11:02:19;;;;;;;;;;;17.40;88.90;;;;;;6215796;23;19910;-88
2022/03/21 11:04:45;;;;;;;;;;;17.40;86.50;;;;;;6217712;23;19958;-87
2022/03/21 11:07:12;;;;;;;;;;;17.30;86.80;;;;;;6216954;23;19904;-87
2022/03/21 11:09:38;;;;;;;;;;;17.00;86.50;;;;;;6216448;23;19908;-86
2022/03/21 11:12:05;;;;;;;;;;;16.70;88.30;;;;;;6217959;23;19916;-87
2022/03/21 11:14:31;;;;;;;;;;;16.70;88.40;;;;;;6217310;23;20312;-87
2022/03/21 11:16:58;;;;;;;;;;;16.60;88.20;;;;;;6217382;23;20313;-86
2022/03/21 11:19:25;;;;;;;;;;;16.60;90.00;;;;;;6216323;23;20347;-87
2022/03/21 11:21:51;;;;;;;;;;;16.50;88.60;;;;;;6217045;23;19927;-88
2022/03/21 11:24:17;;;;;;;;;;;16.90;88.70;;;;;;6215139;23;20236;-87
2022/03/21 11:26:59;;;;;;;;;;;17.10;87.50;;;;;;6217212;23;19978;-88
2022/03/21 11:29:25;;;;;;;;;;;17.10;87.20;;;;;;6215554;23;19912;-87
2022/03/21 11:31:59;;;;;;;;;;;17.20;86.40;;;;;;6215264;23;19912;-87
2022/03/21 11:34:28;;;;;;;;;;;17.20;86.30;;;;;;6217573;23;20202;-86
2022/03/21 11:36:55;;;;;;;;;;;17.00;86.90;;;;;;6216768;23;19908;-88
2022/03/21 11:39:21;;;;;;;;;;;16.90;87.50;;;;;;6215493;23;19940;-87
2022/03/21 11:42:02;;;;;;;;;;;17.20;87.20;;;;;;6217150;23;19910;-87
2022/03/21 11:44:28;;;;;;;;;;;16.90;86.70;;;;;;6216992;23;20055;-88
2022/03/21 11:47:14;;;;;;;;;;;16.80;87.20;;;;;;6216905;23;19908;-87
2022/03/21 11:49:39;;;;;;;;;;;17.20;86.50;;;;;;6217000;23;20209;-87
2022/03/21 11:52:05;;;;;;;;;;;17.40;84.80;;;;;;6216879;23;19912;-86
2022/03/21 11:54:33;;;;;;;;;;;17.40;85.20;;;;;;6216632;23;20228;-88
2022/03/21 11:56:58;;;;;;;;;;;17.50;86.10;;;;;;6215129;23;19910;-87
2022/03/21 11:59:34;;;;;;;;;;;17.20;86.60;;;;;;6216355;23;20220;-85
2022/03/21 12:02:12;;;;;;;;;;;17.20;87.10;;;;;;6213970;23;19974;-88
2022/03/21 12:04:39;;;;;;;;;;;16.90;87.60;;;;;;6214357;23;19932;-88
2022/03/21 12:07:13;;;;;;;;;;;17.10;86.80;;;;;;6217146;23;19912;-87
2022/03/21 12:09:40;;;;;;;;;;;17.40;87.20;;;;;;6217203;23;19904;-87
2022/03/21 12:12:06;;;;;;;;;;;17.50;87.30;;;;;;6216751;23;20313;-87
2022/03/21 12:15:08;;;;;;;;;;;17.80;83.70;;;;;;6214698;23;19904;-86
2022/03/21 12:17:33;;;;;;;;;;;17.80;85.20;;;;;;6095353;23;19988;-87
2022/03/21 12:20:03;;;;;;;;;;;17.60;85.60;;;;;;6095159;23;19988;-87
2022/03/21 12:25:05;;;;;;;;;;;17.00;86.70;;;;;;6095388;23;19933;-88
2022/03/21 12:27:32;;;;;;;;;;;16.60;87.00;;;;;;6095297;23;19913;-87
2022/03/21 12:30:16;;;;;;;;;;;16.70;87.60;;;;;;6095247;23;19905;-87
2022/03/21 12:32:52;;;;;;;;;;;16.70;87.10;;;;;;6095463;23;19973;-87
2022/03/21 12:35:44;;;;;;;;;;;16.50;89.10;;;;;;6096720;23;20004;-87
2022/03/21 12:38:21;;;;;;;;;;;16.30;89.10;;;;;;6062065;23;19945;-87
2022/03/21 12:40:47;;;;;;;;;;;16.10;91.60;;;;;;6095385;23;19905;-90
2022/03/21 12:43:33;;;;;;;;;;;16.30;92.10;;;;;;6071894;23;19906;-88
2022/03/21 12:46:05;;;;;;;;;;;16.60;91.90;;;;;;6094918;23;19912;-86
2022/03/21 12:48:31;;;;;;;;;;;16.60;91.10;;;;;;6096306;23;19912;-84
2022/03/21 12:50:57;;;;;;;;;;;16.30;92.10;;;;;;6095050;23;19913;-86
2022/03/21 12:53:23;;;;;;;;;;;15.70;92.20;;;;;;6084631;23;19929;-87
2022/03/21 12:56:04;;;;;;;;;;;15.60;92.50;;;;;;6217220;23;20241;-86
2022/03/21 12:58:30;;;;;;;;;;;15.90;92.70;;;;;;6217105;23;19904;-86
2022/03/21 13:01:00;;;;;;;;;;;15.70;91.80;;;;;;6230196;23;19902;-88
2022/03/21 13:03:26;;;;;;;;;;;15.40;92.10;;;;;;6239923;23;19904;-86
2022/03/21 13:11:26;;;;;;;;;;;15.90;91.40;;;;;;6217587;23;20280;-91
2022/03/21 13:13:56;;;;;;;;;;;15.90;91.40;;;;;;6216294;23;19911;-92
2022/03/21 13:16:23;;;;;;;;;;;16.00;91.40;;;;;;6219165;23;20210;-91
2022/03/21 13:18:52;;;;;;;;;;;16.00;90.80;;;;;;6217715;23;19904;-87
2022/03/21 13:21:19;;;;;;;;;;;15.80;91.20;;;;;;6214927;23;19904;-87
2022/03/21 13:23:45;;;;;;;;;;;15.90;91.20;;;;;;6215829;23;19908;-89
2022/03/21 13:26:15;;;;;;;;;;;15.50;91.50;;;;;;6217923;23;20317;-89
2022/03/21 13:28:42;;;;;;;;;;;15.30;92.10;;;;;;6219204;23;19904;-90
2022/03/21 13:31:11;;;;;;;;;;;14.80;92.40;;;;;;6216002;23;20014;-90
2022/03/21 13:33:38;;;;;;;;;;;14.80;92.60;;;;;;6214977;23;19935;-81
2022/03/21 13:36:05;;;;;;;;;;;14.80;92.80;;;;;;6216038;23;19908;-86
2022/03/21 13:38:32;;;;;;;;;;;14.80;93.20;;;;;;6216270;23;19939;-87
2022/03/21 13:40:58;;;;;;;;;;;14.20;94.10;;;;;;6216130;23;19904;-85
2022/03/21 13:43:28;;;;;;;;;;;14.10;93.80;;;;;;6214151;23;20288;-84
2022/03/21 13:45:55;;;;;;;;;;;13.80;94.00;;;;;;6215924;23;19908;-84
2022/03/21 13:48:35;;;;;;;;;;;13.80;94.50;;;;;;6215844;23;19911;-85
2022/03/21 13:51:04;;;;;;;;;;;13.70;94.40;;;;;;6216033;23;19973;-84
2022/03/21 13:53:29;;;;;;;;;;;13.00;96.70;;;;;;6217148;23;19935;-92
2022/03/21 13:55:57;;;;;;;;;;;12.30;98.20;;;;;;6217347;23;19959;-91
2022/03/21 13:58:27;;;;;;;;;;;11.60;99.90;;;;;;6216435;23;19908;-89
2022/03/21 14:00:53;;;;;;;;;;;10.70;99.90;;;;;;6218945;23;19904;-92
2022/03/21 14:03:35;;;;;;;;;;;10.10;99.90;;;;;;6218458;23;19904;-93
2022/03/21 14:06:03;;;;;;;;;;;9.80;99.90;;;;;;6216535;23;19994;-91
2022/03/21 14:08:28;;;;;;;;;;;9.70;99.90;;;;;;6218005;23;20256;-87
2022/03/21 14:11:02;;;;;;;;;;;9.70;99.90;;;;;;6213887;23;19916;-90
2022/03/21 14:13:28;;;;;;;;;;;9.90;99.90;;;;;;6215797;23;19904;-89
2022/03/21 14:15:56;;;;;;;;;;;9.70;99.90;;;;;;6214408;23;19908;-81
2022/03/21 14:18:23;;;;;;;;;;;9.80;99.90;;;;;;6215664;23;19904;-85
2022/03/21 14:20:49;;;;;;;;;;;9.80;99.90;;;;;;6217360;23;20154;-82
2022/03/21 14:23:15;;;;;;;;;;;9.90;99.90;;;;;;6222066;23;20332;-85
2022/03/21 14:28:25;;;;;;;;;;;10.20;99.90;;;;;;6230042;23;19910;-84
2022/03/21 14:30:51;;;;;;;;;;;10.50;99.90;;;;;;6225753;23;19912;-87
2022/03/21 14:33:17;;;;;;;;;;;10.70;99.90;;;;;;6233216;23;19944;-89
2022/03/21 14:35:43;;;;;;;;;;;11.00;99.90;;;;;;6235407;23;19904;-86
2022/03/21 14:38:09;;;;;;;;;;;11.10;99.90;;;;;;6232448;23;20245;-87
2022/03/21 14:40:36;;;;;;;;;;;11.10;99.90;;;;;;6235479;23;19950;-85
2022/03/21 14:43:02;;;;;;;;;;;11.20;99.90;;;;;;6231097;23;20232;-85
2022/03/21 14:45:28;;;;;;;;;;;11.10;99.90;;;;;;6234847;23;19904;-85
2022/03/21 14:47:54;;;;;;;;;;;11.00;99.90;;;;;;6230401;23;19908;-87
2022/03/21 14:50:20;;;;;;;;;;;11.10;99.90;;;;;;6227042;23;19982;-83
2022/03/21 14:52:46;;;;;;;;;;;11.20;99.90;;;;;;6221239;23;19979;-87
2022/03/21 14:55:12;;;;;;;;;;;11.40;99.90;;;;;;6222087;23;19903;-86
2022/03/21 14:57:38;;;;;;;;;;;11.40;99.90;;;;;;6223328;23;19912;-84
2022/03/21 15:00:04;;;;;;;;;;;11.40;99.90;;;;;;6218752;23;19932;-88